馬祖北竿航空站 - ATIS

METAR RCMT 120200Z 03008KT 330V060 9999 FEW015 20/12 Q1021 NOSIG RMK A3016(T)=

站台狀態:Offline
最後更新:2019-11-12 10:30:01